Time;durP1;ratioP1;P1;durP2;ratioP2;P2;SDS_P1;SDS_P2;PMS_P1;PMS_P2;Temp;Humidity;BMP_temperature;BMP_pressure;BME280_temperature;BME280_humidity;BME280_pressure;Samples;Min_cycle;Max_cycle;Signal;HPM_P1;HPM_P2
2023/09/03 00:00:40;;;;;;;26.58;23.15;;;;;;;14.66;100.00;102431.72;4991500;28;20120;-67
2023/09/03 00:03:05;;;;;;;28.13;24.45;;;;;;;14.66;100.00;102429.81;4991924;28;20113;-68
2023/09/03 00:05:31;;;;;;;28.40;23.35;;;;;;;14.67;100.00;102427.84;4991836;28;20137;-68
2023/09/03 00:07:56;;;;;;;27.38;23.20;;;;;;;14.67;100.00;102425.06;4991854;28;20042;-67
2023/09/03 00:10:22;;;;;;;28.58;23.80;;;;;;;14.59;100.00;102420.09;4991860;28;20110;-67
2023/09/03 00:12:47;;;;;;;29.38;24.40;;;;;;;14.55;100.00;102421.84;4990420;28;20542;-67
2023/09/03 00:15:12;;;;;;;27.85;23.45;;;;;;;14.53;100.00;102418.50;4991751;28;20034;-68
2023/09/03 00:17:38;;;;;;;28.35;24.45;;;;;;;14.45;100.00;102414.41;4991892;28;20030;-67
2023/09/03 00:20:05;;;;;;;26.17;22.20;;;;;;;14.39;100.00;102413.63;5005955;28;20042;-67
2023/09/03 00:22:30;;;;;;;28.88;23.10;;;;;;;14.35;100.00;102416.16;4991553;28;20038;-67
2023/09/03 00:24:55;;;;;;;27.70;22.92;;;;;;;14.31;100.00;102430.97;4991761;28;20033;-68
2023/09/03 00:27:21;;;;;;;29.48;23.88;;;;;;;14.29;100.00;102428.50;4990362;28;20121;-68
2023/09/03 00:29:46;;;;;;;29.50;24.75;;;;;;;14.28;100.00;102432.41;4991449;28;20505;-68
2023/09/03 00:32:11;;;;;;;34.65;29.73;;;;;;;14.27;100.00;102429.88;4991530;28;20037;-68
2023/09/03 00:34:37;;;;;;;29.65;26.13;;;;;;;14.30;100.00;102421.81;4991449;28;20076;-68
2023/09/03 00:37:02;;;;;;;32.28;27.02;;;;;;;14.28;100.00;102431.53;4992398;28;20022;-68
2023/09/03 00:39:28;;;;;;;32.28;28.02;;;;;;;14.25;100.00;102429.38;5003294;28;20135;-68
2023/09/03 00:41:53;;;;;;;29.83;25.73;;;;;;;14.17;100.00;102430.81;5010771;28;20033;-68
2023/09/03 00:44:18;;;;;;;29.70;25.35;;;;;;;14.22;100.00;102429.94;5002248;28;20497;-69
2023/09/03 00:46:44;;;;;;;31.70;28.13;;;;;;;14.21;100.00;102443.03;5011096;28;20088;-69
2023/09/03 00:49:19;;;;;;;28.58;24.88;;;;;;;14.18;100.00;102441.66;5006245;28;20089;-69
2023/09/03 00:51:44;;;;;;;31.90;27.38;;;;;;;14.12;100.00;102439.22;5002217;28;20051;-68
2023/09/03 00:54:10;;;;;;;31.77;27.27;;;;;;;14.14;100.00;102442.53;5010875;28;20549;-68
2023/09/03 00:56:35;;;;;;;32.33;27.67;;;;;;;14.09;100.00;102451.75;5010691;28;20474;-69
2023/09/03 00:59:01;;;;;;;29.48;25.35;;;;;;;14.01;100.00;102452.38;5010956;28;20022;-69
2023/09/03 01:01:29;;;;;;;29.05;24.20;;;;;;;13.97;100.00;102463.25;5009342;28;20084;-66
2023/09/03 01:03:56;;;;;;;28.45;24.48;;;;;;;13.95;100.00;102459.94;5010908;28;20038;-68
2023/09/03 01:06:21;;;;;;;27.80;24.15;;;;;;;13.91;100.00;102463.56;5010733;28;20672;-68
2023/09/03 01:08:47;;;;;;;28.08;23.83;;;;;;;13.85;100.00;102457.22;5010707;28;20030;-68
2023/09/03 01:11:22;;;;;;;29.77;23.58;;;;;;;13.80;100.00;102455.31;5008320;28;20025;-68
2023/09/03 01:13:57;;;;;;;27.67;23.30;;;;;;;13.80;100.00;102451.69;5007871;28;20117;-67
2023/09/03 01:16:30;;;;;;;28.05;23.23;;;;;;;13.78;100.00;102443.66;4995062;28;20122;-68
2023/09/03 01:18:59;;;;;;;28.42;22.35;;;;;;;13.77;100.00;102441.16;4994933;28;20057;-68
2023/09/03 01:22:05;;;;;;;28.58;22.92;;;;;;;13.79;100.00;102438.91;4994668;28;20043;-69
2023/09/03 01:24:52;;;;;;;27.60;22.42;;;;;;;13.83;100.00;102437.22;4994663;28;20085;-67
2023/09/03 01:27:22;;;;;;;26.65;22.15;;;;;;;13.79;100.00;102436.13;4994713;28;20084;-69
2023/09/03 01:29:49;;;;;;;28.17;21.77;;;;;;;13.81;100.00;102447.81;4994771;28;20141;-68
2023/09/03 01:32:16;;;;;;;26.73;21.80;;;;;;;13.74;100.00;102448.13;4994671;28;20134;-68
2023/09/03 01:34:44;;;;;;;26.90;21.80;;;;;;;13.69;100.00;102448.16;4994643;28;20092;-68
2023/09/03 01:37:09;;;;;;;26.50;21.40;;;;;;;13.67;100.00;102454.00;4993090;28;20042;-68
2023/09/03 01:39:35;;;;;;;28.15;22.65;;;;;;;13.65;100.00;102450.66;4994484;28;20045;-68
2023/09/03 01:42:00;;;;;;;27.77;22.40;;;;;;;13.60;100.00;102452.69;4995126;28;20112;-69
2023/09/03 01:44:25;;;;;;;28.52;22.33;;;;;;;13.53;100.00;102442.69;5008249;28;20033;-69
2023/09/03 01:47:00;;;;;;;27.55;22.00;;;;;;;13.46;100.00;102438.59;4994212;28;20047;-68
2023/09/03 01:49:42;;;;;;;26.30;21.55;;;;;;;13.45;100.00;102436.91;5006505;28;20485;-68
2023/09/03 01:52:16;;;;;;;26.40;22.02;;;;;;;13.40;100.00;102438.59;5013840;28;20552;-68
2023/09/03 01:54:47;;;;;;;26.58;21.77;;;;;;;13.34;100.00;102434.16;5013725;28;20109;-68
2023/09/03 01:57:28;;;;;;;27.52;21.67;;;;;;;13.36;100.00;102443.06;5013709;28;20476;-69
2023/09/03 01:59:56;;;;;;;28.33;22.52;;;;;;;13.32;100.00;102444.72;5013870;28;20069;-68
2023/09/03 02:02:22;;;;;;;28.25;22.92;;;;;;;13.35;100.00;102460.84;5013662;28;20044;-66
2023/09/03 02:04:48;;;;;;;29.60;21.98;;;;;;;13.26;100.00;102460.59;5013653;28;20058;-68
2023/09/03 02:07:13;;;;;;;26.52;22.00;;;;;;;13.25;100.00;102467.25;5013530;28;20080;-68
2023/09/03 02:09:38;;;;;;;28.25;22.13;;;;;;;13.24;100.00;102465.59;5013387;28;20117;-68
2023/09/03 02:12:06;;;;;;;27.35;22.63;;;;;;;13.21;100.00;102463.41;5013404;28;20025;-66
2023/09/03 02:14:31;;;;;;;27.17;22.15;;;;;;;13.22;100.00;102467.00;5006421;28;20501;-69
2023/09/03 02:16:56;;;;;;;28.52;21.88;;;;;;;13.15;100.00;102480.38;4993778;28;20023;-67
2023/09/03 02:19:22;;;;;;;27.52;22.83;;;;;;;13.15;100.00;102475.66;4993804;28;20053;-67
2023/09/03 02:21:48;;;;;;;27.10;21.95;;;;;;;13.12;100.00;102473.44;4993768;28;20085;-67
2023/09/03 02:24:13;;;;;;;26.75;22.98;;;;;;;13.16;100.00;102463.41;4993330;28;20422;-67
2023/09/03 02:26:41;;;;;;;26.92;21.95;;;;;;;13.18;100.00;102472.31;4993584;28;20058;-66
2023/09/03 02:29:06;;;;;;;26.75;22.10;;;;;;;13.20;100.00;102477.56;4993380;28;20065;-69
2023/09/03 02:31:31;;;;;;;27.67;22.40;;;;;;;13.21;100.00;102482.00;5003405;28;20030;-67
2023/09/03 02:33:56;;;;;;;27.40;21.85;;;;;;;13.22;100.00;102480.91;5013106;28;20455;-66
2023/09/03 02:36:22;;;;;;;26.45;21.58;;;;;;;13.20;100.00;102480.34;5012958;28;20036;-69
2023/09/03 02:38:47;;;;;;;25.55;20.98;;;;;;;13.18;100.00;102479.78;5012372;28;20532;-66
2023/09/03 02:41:12;;;;;;;26.95;21.38;;;;;;;13.18;100.00;102477.88;5012836;28;20555;-67
2023/09/03 02:43:38;;;;;;;28.10;21.77;;;;;;;13.17;100.00;102458.72;5003927;28;20066;-67
2023/09/03 02:46:03;;;;;;;27.98;22.27;;;;;;;13.21;100.00;102460.63;5005116;28;20168;-66
2023/09/03 02:48:28;;;;;;;28.15;22.50;;;;;;;13.12;100.00;102445.66;4993275;28;20040;-67
2023/09/03 02:50:54;;;;;;;27.30;21.92;;;;;;;13.15;100.00;102463.72;4993043;28;20366;-68
2023/09/03 02:53:19;;;;;;;27.13;21.58;;;;;;;13.08;100.00;102467.59;4993039;28;20393;-67
2023/09/03 02:55:44;;;;;;;27.27;22.83;;;;;;;13.07;100.00;102471.53;4991588;28;20370;-67
2023/09/03 02:58:10;;;;;;;26.58;22.33;;;;;;;13.02;100.00;102465.16;4992985;28;20030;-67
2023/09/03 03:00:35;;;;;;;28.40;22.02;;;;;;;12.97;100.00;102479.03;4992901;28;20022;-67
2023/09/03 03:03:01;;;;;;;28.35;22.58;;;;;;;12.96;100.00;102478.22;4992731;28;20110;-67
2023/09/03 03:05:26;;;;;;;28.38;22.92;;;;;;;12.87;100.00;102489.06;4992878;28;20030;-67
2023/09/03 03:07:51;;;;;;;27.73;22.58;;;;;;;12.89;100.00;102488.81;4992717;28;20038;-68
2023/09/03 03:10:17;;;;;;;28.23;22.77;;;;;;;12.90;100.00;102473.78;4992670;28;20387;-68
2023/09/03 03:12:43;;;;;;;26.70;21.38;;;;;;;12.91;100.00;102465.19;4992625;28;20073;-68
2023/09/03 03:15:09;;;;;;;28.13;22.70;;;;;;;12.92;100.00;102477.09;4997062;28;20042;-68
2023/09/03 03:17:34;;;;;;;26.38;21.52;;;;;;;12.90;100.00;102471.84;5000192;28;20113;-67
2023/09/03 03:19:59;;;;;;;28.35;22.45;;;;;;;12.91;100.00;102467.97;4992430;28;20054;-68
2023/09/03 03:22:25;;;;;;;28.42;22.83;;;;;;;12.94;100.00;102447.94;4992290;28;20018;-68
2023/09/03 03:24:50;;;;;;;28.40;22.58;;;;;;;12.94;100.00;102441.56;4992320;28;20026;-67
2023/09/03 03:27:17;;;;;;;28.52;23.25;;;;;;;12.91;100.00;102445.75;4992370;28;20030;-67
2023/09/03 03:29:42;;;;;;;28.30;23.15;;;;;;;12.90;100.00;102430.19;5007672;28;20054;-67
2023/09/03 03:32:07;;;;;;;27.20;22.55;;;;;;;12.91;100.00;102440.19;4992561;28;20030;-67
2023/09/03 03:34:33;;;;;;;28.55;22.63;;;;;;;12.87;100.00;102441.84;4990788;28;20025;-67
2023/09/03 03:36:58;;;;;;;28.08;22.65;;;;;;;12.84;100.00;102453.53;4991664;28;20410;-67
2023/09/03 03:39:24;;;;;;;27.48;22.35;;;;;;;12.81;100.00;102465.22;4991969;28;20126;-67
2023/09/03 03:41:49;;;;;;;29.73;23.25;;;;;;;12.78;100.00;102482.44;4992039;28;20030;-67
2023/09/03 03:44:14;;;;;;;30.27;22.63;;;;;;;12.76;100.00;102481.88;4993290;28;20130;-67
2023/09/03 03:46:40;;;;;;;29.02;22.48;;;;;;;12.79;100.00;102478.53;5003329;28;20489;-67
2023/09/03 03:49:05;;;;;;;28.92;23.35;;;;;;;12.85;100.00;102480.19;4991916;28;20054;-69
2023/09/03 03:51:31;;;;;;;27.10;22.90;;;;;;;12.83;100.00;102479.66;4991873;28;20111;-67
2023/09/03 03:53:58;;;;;;;27.52;22.20;;;;;;;12.83;100.00;102481.56;4991891;28;20031;-67
2023/09/03 03:56:24;;;;;;;28.65;23.17;;;;;;;12.79;100.00;102482.16;4991930;28;20053;-67
2023/09/03 03:58:49;;;;;;;30.85;24.67;;;;;;;12.75;100.00;102488.56;4991802;28;20378;-66
2023/09/03 04:01:16;;;;;;;28.00;22.83;;;;;;;12.69;100.00;102495.22;5006594;28;20030;-67
2023/09/03 04:03:42;;;;;;;29.65;23.52;;;;;;;12.67;100.00;102494.66;4991856;28;20055;-67
2023/09/03 04:06:08;;;;;;;29.58;23.65;;;;;;;12.58;100.00;102495.22;4991880;28;20036;-68
2023/09/03 04:08:35;;;;;;;28.15;23.13;;;;;;;12.64;100.00;102505.22;4991684;28;20027;-67
2023/09/03 04:11:08;;;;;;;28.02;23.10;;;;;;;12.66;100.00;102501.34;4990173;28;20030;-67
2023/09/03 04:13:35;;;;;;;29.38;23.85;;;;;;;12.69;100.00;102501.63;4991605;28;20526;-68
2023/09/03 04:16:05;;;;;;;28.40;23.27;;;;;;;12.71;100.00;102512.44;4993777;28;20018;-68
2023/09/03 04:18:31;;;;;;;30.00;24.13;;;;;;;12.66;100.00;102504.94;5000309;28;20347;-68
2023/09/03 04:20:57;;;;;;;29.58;23.70;;;;;;;12.58;100.00;102500.78;4991571;28;20081;-68
2023/09/03 04:23:24;;;;;;;30.45;24.20;;;;;;;12.56;100.00;102503.03;4991541;28;20088;-68
2023/09/03 04:25:51;;;;;;;28.50;23.52;;;;;;;12.53;100.00;102500.81;4991550;28;20034;-68
2023/09/03 04:28:17;;;;;;;29.35;24.23;;;;;;;12.51;100.00;102496.66;4992081;28;20558;-68
2023/09/03 04:30:42;;;;;;;30.30;24.23;;;;;;;12.46;100.00;102494.69;4991241;28;20062;-68
2023/09/03 04:33:08;;;;;;;29.60;24.08;;;;;;;12.46;100.00;102503.84;4991481;28;20117;-68
2023/09/03 04:35:37;;;;;;;31.05;24.10;;;;;;;12.45;100.00;102507.72;4991209;28;20057;-68
2023/09/03 04:38:04;;;;;;;28.52;24.33;;;;;;;12.44;100.00;102503.28;4991357;28;20045;-68
2023/09/03 04:40:36;;;;;;;28.98;23.25;;;;;;;12.45;100.00;102504.13;4993312;28;20046;-69
2023/09/03 04:43:05;;;;;;;29.45;23.95;;;;;;;12.44;100.00;102497.75;5003617;28;20448;-68
2023/09/03 04:45:31;;;;;;;28.85;23.67;;;;;;;12.47;100.00;102494.41;4996757;28;20100;-68
2023/09/03 04:47:57;;;;;;;28.75;23.85;;;;;;;12.50;100.00;102514.41;4994545;28;20116;-68
2023/09/03 04:50:23;;;;;;;30.42;24.25;;;;;;;12.47;100.00;102541.59;4995100;28;20084;-68
2023/09/03 04:52:49;;;;;;;31.50;25.98;;;;;;;12.46;100.00;102541.88;5003958;28;20088;-69
2023/09/03 04:55:14;;;;;;;28.95;24.25;;;;;;;12.47;100.00;102540.75;5014858;28;20029;-69
2023/09/03 04:57:40;;;;;;;30.05;24.45;;;;;;;12.49;100.00;102546.88;5013719;28;20030;-68
2023/09/03 05:00:07;;;;;;;30.08;23.77;;;;;;;12.48;100.00;102547.97;4995040;28;20034;-68
2023/09/03 05:02:32;;;;;;;30.85;24.48;;;;;;;12.47;100.00;102552.72;4994964;28;20069;-69
2023/09/03 05:04:58;;;;;;;29.27;24.15;;;;;;;12.47;100.00;102547.16;4995110;28;20050;-68
2023/09/03 05:07:24;;;;;;;29.25;23.13;;;;;;;12.52;100.00;102551.03;4995052;28;20037;-69
2023/09/03 05:09:52;;;;;;;29.15;23.25;;;;;;;12.57;100.00;102564.91;4994890;28;20038;-68
2023/09/03 05:12:17;;;;;;;28.77;22.83;;;;;;;12.60;100.00;102562.41;4994803;28;20026;-68
2023/09/03 05:14:43;;;;;;;28.50;22.65;;;;;;;12.67;100.00;102564.91;4994760;28;20057;-68
2023/09/03 05:17:08;;;;;;;29.38;23.35;;;;;;;12.71;100.00;102556.88;4994629;28;20026;-68
2023/09/03 05:19:34;;;;;;;29.48;23.38;;;;;;;12.72;100.00;102556.56;4994656;28;20031;-68
2023/09/03 05:21:59;;;;;;;30.58;23.63;;;;;;;12.73;100.00;102561.03;4993376;28;20545;-67
2023/09/03 05:24:24;;;;;;;28.80;23.30;;;;;;;12.73;100.00;102555.47;4994577;28;20484;-67
2023/09/03 05:26:50;;;;;;;28.38;23.08;;;;;;;12.75;100.00;102557.97;4994491;28;20026;-68
2023/09/03 05:29:15;;;;;;;29.60;22.88;;;;;;;12.80;100.00;102560.75;4998913;28;20104;-67
2023/09/03 05:31:40;;;;;;;29.45;23.45;;;;;;;12.80;100.00;102558.78;5005359;28;20084;-67
2023/09/03 05:34:06;;;;;;;31.42;23.65;;;;;;;12.84;100.00;102566.56;5014054;28;20084;-67
2023/09/03 05:36:32;;;;;;;29.73;23.10;;;;;;;12.85;100.00;102560.72;5013537;28;20385;-67
2023/09/03 05:38:58;;;;;;;30.67;24.05;;;;;;;12.89;100.00;102569.34;5014152;28;20034;-66
2023/09/03 05:41:23;;;;;;;30.27;23.23;;;;;;;12.92;100.00;102571.56;5014154;28;20367;-66
2023/09/03 05:43:52;;;;;;;29.58;23.00;;;;;;;12.91;100.00;102570.72;5013880;28;20033;-66
2023/09/03 05:46:17;;;;;;;29.80;23.48;;;;;;;12.97;100.00;102565.16;5014000;28;20107;-67
2023/09/03 05:48:43;;;;;;;29.38;24.02;;;;;;;13.00;100.00;102565.44;5013683;28;20490;-66
2023/09/03 05:51:08;;;;;;;30.50;23.85;;;;;;;13.08;100.00;102562.06;5013825;28;20022;-67
2023/09/03 05:53:33;;;;;;;31.10;24.00;;;;;;;13.12;100.00;102573.47;5013639;28;20026;-66
2023/09/03 05:56:06;;;;;;;32.00;24.75;;;;;;;13.18;100.00;102579.84;5012117;28;20032;-67
2023/09/03 05:58:32;;;;;;;30.58;24.85;;;;;;;13.20;100.00;102577.59;5012901;28;20157;-67
2023/09/03 06:00:58;;;;;;;30.63;23.90;;;;;;;13.22;100.00;102589.28;5013425;28;20026;-66
2023/09/03 06:03:23;;;;;;;31.38;24.15;;;;;;;13.31;100.00;102587.59;5013433;28;20032;-66
2023/09/03 06:05:49;;;;;;;31.52;25.67;;;;;;;13.33;100.00;102592.84;5008574;28;20046;-66
2023/09/03 06:08:14;;;;;;;30.92;24.95;;;;;;;13.35;100.00;102593.41;5009152;28;20029;-69
2023/09/03 06:10:41;;;;;;;31.58;24.63;;;;;;;13.34;100.00;102597.31;5013350;28;20029;-68
2023/09/03 06:13:06;;;;;;;30.58;24.38;;;;;;;13.41;100.00;102603.47;5013405;28;20029;-68
2023/09/03 06:15:31;;;;;;;29.95;23.60;;;;;;;13.49;100.00;102610.38;5013390;28;20107;-68
2023/09/03 06:17:57;;;;;;;31.25;24.77;;;;;;;13.52;100.00;102609.81;5013128;28;20030;-68
2023/09/03 06:20:22;;;;;;;33.03;25.25;;;;;;;13.55;100.00;102612.84;5013221;28;20353;-67
2023/09/03 06:22:48;;;;;;;30.63;25.02;;;;;;;13.59;100.00;102618.69;5011585;28;20030;-67
2023/09/03 06:25:13;;;;;;;31.15;25.90;;;;;;;13.62;100.00;102629.25;5013253;28;20057;-68
2023/09/03 06:27:38;;;;;;;31.10;25.30;;;;;;;13.63;100.00;102628.13;5012953;28;20120;-68
2023/09/03 06:30:04;;;;;;;31.48;24.83;;;;;;;13.61;100.00;102624.78;5013180;28;20052;-68
2023/09/03 06:32:30;;;;;;;29.30;25.23;;;;;;;13.69;100.00;102632.53;5013064;28;20513;-67
2023/09/03 06:34:56;;;;;;;31.15;26.30;;;;;;;13.66;100.00;102637.84;5012871;28;20113;-67
2023/09/03 06:37:21;;;;;;;32.30;25.92;;;;;;;13.65;100.00;102645.34;4993383;28;20113;-68
2023/09/03 06:39:46;;;;;;;30.88;25.27;;;;;;;13.76;100.00;102656.44;5000035;28;20026;-68
2023/09/03 06:42:12;;;;;;;34.92;26.33;;;;;;;13.80;100.00;102652.78;5012748;28;20042;-68
2023/09/03 06:44:37;;;;;;;32.83;25.15;;;;;;;13.90;100.00;102657.50;5008321;28;20026;-68
2023/09/03 06:47:03;;;;;;;31.25;25.38;;;;;;;13.98;100.00;102668.03;5012783;28;20042;-68
2023/09/03 06:49:28;;;;;;;32.72;25.92;;;;;;;14.03;100.00;102667.19;5012617;28;20100;-68
2023/09/03 06:51:54;;;;;;;32.05;25.52;;;;;;;14.09;100.00;102670.78;5012583;28;20022;-68
2023/09/03 06:54:19;;;;;;;32.45;25.90;;;;;;;14.18;100.00;102669.06;5012483;28;20120;-68
2023/09/03 06:56:45;;;;;;;32.13;26.50;;;;;;;14.25;100.00;102664.00;5012459;28;20033;-67
2023/09/03 06:59:10;;;;;;;31.35;25.63;;;;;;;14.35;100.00;102671.50;5012572;28;20469;-68
2023/09/03 07:01:36;;;;;;;31.70;25.55;;;;;;;14.46;100.00;102669.47;5012696;28;20033;-68
2023/09/03 07:04:01;;;;;;;33.63;26.02;;;;;;;14.47;100.00;102673.91;5009074;28;20049;-68
2023/09/03 07:06:26;;;;;;;33.55;27.30;;;;;;;14.53;100.00;102675.53;4993336;28;20045;-68
2023/09/03 07:08:53;;;;;;;33.88;27.23;;;;;;;14.60;100.00;102678.00;4993322;28;20441;-67
2023/09/03 07:11:19;;;;;;;33.35;25.92;;;;;;;14.73;100.00;102671.81;4992460;28;20053;-68
2023/09/03 07:13:45;;;;;;;32.60;26.20;;;;;;;14.78;100.00;102673.75;5002708;28;20041;-68
2023/09/03 07:16:10;;;;;;;30.38;25.25;;;;;;;14.83;100.00;102682.03;5006176;28;20034;-67
2023/09/03 07:18:35;;;;;;;31.55;24.90;;;;;;;14.84;100.00;102680.06;5012743;28;20132;-67
2023/09/03 07:21:06;;;;;;;31.33;25.25;;;;;;;14.89;100.00;102680.88;5012181;28;20120;-67
2023/09/03 07:23:31;;;;;;;30.40;24.70;;;;;;;15.01;100.00;102677.72;5012435;28;20144;-68
2023/09/03 07:26:08;;;;;;;30.17;25.73;;;;;;;15.20;100.00;102669.47;5012326;28;20057;-66
2023/09/03 07:28:33;;;;;;;30.80;24.80;;;;;;;15.36;100.00;102677.66;5012245;28;20037;-68
2023/09/03 07:31:06;;;;;;;30.40;24.38;;;;;;;15.46;100.00;102685.13;5089231;27;20408;-67
2023/09/03 07:33:34;;;;;;;31.75;24.77;;;;;;;15.50;100.00;102684.22;5089056;28;20041;-67
2023/09/03 07:36:00;;;;;;;30.98;23.60;;;;;;;15.65;100.00;102687.97;5091406;28;20036;-67
2023/09/03 07:38:27;;;;;;;29.05;23.60;;;;;;;15.69;100.00;102686.25;5088526;28;20024;-66
2023/09/03 07:40:52;;;;;;;30.65;24.60;;;;;;;15.81;100.00;102691.41;5089293;28;20033;-67
2023/09/03 07:43:18;;;;;;;31.05;25.17;;;;;;;15.87;100.00;102695.88;5087854;28;20060;-65
2023/09/03 07:45:44;;;;;;;29.98;24.95;;;;;;;16.03;100.00;102697.34;5079805;28;20029;-66
2023/09/03 07:48:10;;;;;;;31.42;24.95;;;;;;;16.16;100.00;102706.09;5080055;28;20028;-68
2023/09/03 07:50:38;;;;;;;30.77;25.13;;;;;;;16.31;100.00;102707.84;5080152;28;20080;-67
2023/09/03 07:53:03;;;;;;;30.45;25.50;;;;;;;16.40;100.00;102711.63;5105965;28;20127;-67
2023/09/03 07:55:28;;;;;;;30.83;26.38;;;;;;;16.43;100.00;102710.22;5091890;28;20095;-67
2023/09/03 07:57:54;;;;;;;31.98;25.63;;;;;;;16.50;100.00;102714.28;5077215;28;20032;-67
2023/09/03 08:00:19;;;;;;;31.80;26.05;;;;;;;16.57;100.00;102713.91;5067177;28;20033;-67
2023/09/03 08:02:44;;;;;;;30.80;25.10;;;;;;;16.69;100.00;102703.13;5087422;28;20033;-67
2023/09/03 08:05:11;;;;;;;30.45;25.60;;;;;;;16.83;100.00;102703.19;5092766;28;20069;-67
2023/09/03 08:07:37;;;;;;;30.80;26.52;;;;;;;16.94;100.00;102714.25;5107697;28;20028;-67
2023/09/03 08:10:03;;;;;;;30.73;26.70;;;;;;;17.04;100.00;102713.22;5107268;28;20122;-67
2023/09/03 08:12:28;;;;;;;31.90;25.92;;;;;;;17.20;100.00;102709.03;5105454;28;20136;-67
2023/09/03 08:14:53;;;;;;;30.30;25.40;;;;;;;17.29;100.00;102707.19;5072178;28;20032;-66
2023/09/03 08:17:20;;;;;;;30.70;25.70;;;;;;;17.37;100.00;102696.47;5087176;28;20153;-67
2023/09/03 08:19:47;;;;;;;30.13;24.95;;;;;;;17.40;100.00;102705.06;5087492;28;20082;-66
2023/09/03 08:22:12;;;;;;;29.45;24.73;;;;;;;17.41;100.00;102697.47;5083602;28;20032;-67
2023/09/03 08:24:37;;;;;;;30.08;24.73;;;;;;;17.44;100.00;102708.06;5073090;28;20412;-68
2023/09/03 08:27:03;;;;;;;30.45;25.20;;;;;;;17.46;100.00;102706.63;5074486;28;20040;-66
2023/09/03 08:29:29;;;;;;;28.73;25.10;;;;;;;17.52;100.00;102704.56;5086128;28;20134;-67
2023/09/03 08:31:54;;;;;;;30.52;25.50;;;;;;;17.64;100.00;102706.03;5085919;28;20039;-68
2023/09/03 08:34:19;;;;;;;28.63;23.52;;;;;;;17.76;100.00;102707.16;5082410;28;20483;-67
2023/09/03 08:36:45;;;;;;;29.80;25.23;;;;;;;17.87;100.00;102716.19;5068761;28;20036;-67
2023/09/03 08:39:10;;;;;;;28.85;24.85;;;;;;;18.00;100.00;102722.94;5066385;28;20472;-66
2023/09/03 08:41:39;;;;;;;28.58;24.30;;;;;;;18.14;100.00;102725.75;5057354;28;20032;-67
2023/09/03 08:44:11;;;;;;;29.45;24.30;;;;;;;18.28;100.00;102710.91;5053048;28;20032;-66
2023/09/03 08:46:40;;;;;;;29.00;24.40;;;;;;;18.34;100.00;102720.84;5061944;28;20029;-66
2023/09/03 08:49:07;;;;;;;29.58;25.33;;;;;;;18.46;100.00;102726.75;5062298;28;20446;-67
2023/09/03 08:51:33;;;;;;;30.45;25.58;;;;;;;18.54;100.00;102731.59;5056731;28;20036;-67
2023/09/03 08:54:00;;;;;;;29.10;24.25;;;;;;;18.68;100.00;102728.75;5061667;28;20037;-67
2023/09/03 08:56:26;;;;;;;28.88;24.83;;;;;;;18.86;100.00;102729.75;5059336;28;20067;-67
2023/09/03 08:58:51;;;;;;;29.60;25.15;;;;;;;19.00;100.00;102717.66;5064650;28;20024;-66
2023/09/03 09:01:17;;;;;;;28.10;23.88;;;;;;;19.16;100.00;102721.75;5066058;28;20489;-67
2023/09/03 09:03:44;;;;;;;30.10;25.70;;;;;;;19.31;100.00;102725.31;5055681;28;20037;-67
2023/09/03 09:06:11;;;;;;;30.95;25.55;;;;;;;19.33;100.00;102720.22;5052842;28;20040;-67
2023/09/03 09:08:38;;;;;;;30.65;26.90;;;;;;;19.40;100.00;102719.75;5052828;28;20508;-67
2023/09/03 09:11:10;;;;;;;31.13;26.10;;;;;;;19.59;100.00;102711.09;5053061;28;20025;-67
2023/09/03 09:13:39;;;;;;;30.15;25.25;;;;;;;19.70;100.00;102715.28;5052791;28;20047;-66
2023/09/03 09:16:04;;;;;;;30.02;24.45;;;;;;;19.76;100.00;102715.97;5052891;28;20029;-67
2023/09/03 09:18:30;;;;;;;28.38;24.65;;;;;;;19.76;99.21;102721.59;5052594;28;20031;-67
2023/09/03 09:20:59;;;;;;;28.58;25.35;;;;;;;19.76;100.00;102718.78;5052363;28;20082;-67
2023/09/03 09:23:26;;;;;;;25.58;21.05;;;;;;;19.79;95.54;102721.75;5052200;28;20032;-67
2023/09/03 09:25:55;;;;;;;25.70;21.63;;;;;;;19.92;96.41;102716.41;5052201;28;20036;-67
2023/09/03 09:28:21;;;;;;;26.15;21.88;;;;;;;20.04;96.81;102724.19;5052617;28;20444;-67
2023/09/03 09:30:55;;;;;;;25.05;19.85;;;;;;;20.10;93.48;102711.63;5067612;28;20078;-67
2023/09/03 09:33:20;;;;;;;24.05;18.23;;;;;;;20.23;91.98;102712.66;5058351;28;20035;-67
2023/09/03 09:35:46;;;;;;;25.05;19.60;;;;;;;20.30;91.41;102709.38;5063431;28;20032;-67
2023/09/03 09:38:11;;;;;;;24.65;20.15;;;;;;;20.28;89.69;102709.72;5063773;28;20029;-67
2023/09/03 09:40:37;;;;;;;24.92;20.13;;;;;;;20.19;89.30;102701.25;5062423;28;20052;-67
2023/09/03 09:43:05;;;;;;;25.48;19.90;;;;;;;20.17;89.50;102711.16;5062115;28;20108;-68
2023/09/03 09:45:32;;;;;;;25.55;19.80;;;;;;;20.22;92.20;102706.22;5060230;28;20094;-67
2023/09/03 09:48:06;;;;;;;23.52;18.83;;;;;;;20.32;92.17;102696.63;5060165;28;20036;-68
2023/09/03 09:50:39;;;;;;;25.77;20.05;;;;;;;20.39;92.12;102707.41;5057333;28;20043;-68
2023/09/03 09:53:05;;;;;;;24.13;18.90;;;;;;;20.44;90.63;102700.78;5062731;28;20028;-68
2023/09/03 09:55:32;;;;;;;24.23;17.95;;;;;;;20.49;89.02;102703.47;5065015;28;20025;-67
2023/09/03 09:57:58;;;;;;;22.88;17.92;;;;;;;20.51;88.17;102701.13;5060862;28;20075;-68
2023/09/03 10:00:34;;;;;;;23.80;18.92;;;;;;;20.48;87.23;102696.19;5062394;28;20109;-68
2023/09/03 10:03:00;;;;;;;24.05;18.60;;;;;;;20.58;87.79;102702.28;5061156;28;20519;-68
2023/09/03 10:05:25;;;;;;;24.13;18.27;;;;;;;20.63;87.05;102706.91;5065604;28;20116;-68
2023/09/03 10:07:52;;;;;;;26.55;20.45;;;;;;;20.66;88.59;102700.66;5071788;28;20036;-68
2023/09/03 10:10:18;;;;;;;25.85;20.88;;;;;;;20.70;87.96;102701.63;5071702;28;20139;-67
2023/09/03 10:12:44;;;;;;;24.38;20.10;;;;;;;20.81;89.07;102699.34;5070815;28;20039;-68
2023/09/03 10:15:12;;;;;;;26.45;21.27;;;;;;;20.82;86.65;102709.44;5071655;28;20020;-68
2023/09/03 10:17:40;;;;;;;24.58;20.48;;;;;;;20.97;88.14;102698.84;5062563;28;20035;-68
2023/09/03 10:20:10;;;;;;;26.85;20.30;;;;;;;21.21;88.66;102692.66;5059380;28;20044;-68
2023/09/03 10:22:39;;;;;;;25.02;20.38;;;;;;;21.30;85.23;102685.03;5054554;28;20032;-69
2023/09/03 10:25:08;;;;;;;25.23;19.77;;;;;;;21.43;85.24;102694.41;5068583;28;20443;-68
2023/09/03 10:27:38;;;;;;;25.02;19.58;;;;;;;21.48;85.03;102693.41;5071399;28;20039;-68
2023/09/03 10:30:09;;;;;;;24.63;19.45;;;;;;;21.63;85.43;102692.06;5071076;28;20567;-68
2023/09/03 10:32:37;;;;;;;23.67;17.70;;;;;;;21.68;80.28;102691.03;5067706;28;20118;-68
2023/09/03 10:35:10;;;;;;;22.73;16.98;;;;;;;21.77;80.71;102700.28;5060498;28;20025;-69
2023/09/03 10:37:37;;;;;;;22.93;17.53;;;;;;;21.79;80.07;102695.13;5065448;28;20033;-68
2023/09/03 10:40:22;;;;;;;23.65;18.08;;;;;;;21.79;79.35;102701.59;5064573;28;20037;-68
2023/09/03 10:42:52;;;;;;;23.10;16.90;;;;;;;21.78;80.89;102699.94;5054917;28;20029;-68
2023/09/03 10:45:18;;;;;;;26.27;18.65;;;;;;;21.95;82.57;102701.84;5051575;28;20094;-68
2023/09/03 10:47:55;;;;;;;22.65;17.02;;;;;;;22.04;79.34;102700.97;5054766;28;20037;-69
2023/09/03 10:50:46;;;;;;;24.17;18.35;;;;;;;22.00;80.44;102705.66;5049339;28;20036;-69
2023/09/03 10:53:39;;;;;;;23.15;17.83;;;;;;;22.09;81.20;102709.25;5050135;28;20430;-69
2023/09/03 10:56:13;;;;;;;22.23;16.75;;;;;;;22.05;75.07;102713.88;5050202;28;20090;-69
2023/09/03 10:58:57;;;;;;;21.00;15.52;;;;;;;22.19;77.39;102702.38;5056529;28;20219;-69
2023/09/03 11:01:30;;;;;;;21.45;15.05;;;;;;;22.31;73.87;102710.91;5070773;28;20020;-69